Egyptian Hills, Illinois
Current Conditions -  °F | °C
As of 5:48 PM on Monday 20 Oct 2014 (Local Time) from KMWA Reporting Station
Clear Clear  
Wind Chill: 73°   Ceiling: Unl
Heat Index: 73°   Visibility: 20mi
Dew Point: 48°   Wind: 8mph
Humidity: 41%   Direction: 310°NW
Pressure: 29.94"   Gusts: NA
Location:  37.6398°N, 88.8751°W
Report Text: KMWA 202248Z 31007KT 20SM SKC 23/09 A2994
Loading
Personal Weather Stations






























Interactive Weather Map
Tropical Storm Tracking
New forecast layout! Learn more

10-Day Weather Forecast

Advertisements
Track Severe Weather on mobile